createdAt,value
2023-03-29T00:01:43.439Z,84.01
2023-03-29T00:04:14.426Z,85.18
2023-03-29T00:06:44.616Z,85.79
2023-03-29T00:09:15.368Z,85.37
2023-03-29T00:11:46.074Z,85.22
2023-03-29T00:14:16.825Z,85.97
2023-03-29T00:16:47.575Z,86.11
2023-03-29T00:19:18.364Z,85.91
2023-03-29T00:21:49.019Z,86.17
2023-03-29T00:24:19.753Z,84.65
2023-03-29T00:26:50.488Z,84.75
2023-03-29T00:29:21.228Z,85.90
2023-03-29T00:31:52.099Z,86.07
2023-03-29T00:34:22.710Z,85.71
2023-03-29T00:36:53.436Z,86.73
2023-03-29T00:39:24.182Z,86.85
2023-03-29T00:41:54.962Z,86.86
2023-03-29T00:44:25.665Z,86.55
2023-03-29T00:46:55.772Z,87.81
2023-03-29T00:49:25.983Z,88.32
2023-03-29T00:51:56.784Z,88.34
2023-03-29T00:54:27.456Z,88.38
2023-03-29T00:56:57.970Z,89.03
2023-03-29T00:59:28.326Z,88.97
2023-03-29T01:01:59.102Z,89.32
2023-03-29T01:04:29.236Z,89.26
2023-03-29T01:06:59.822Z,89.61
2023-03-29T01:09:29.893Z,90.01
2023-03-29T01:12:00.116Z,90.95
2023-03-29T01:14:30.505Z,90.90
2023-03-29T01:17:01.289Z,90.21
2023-03-29T01:19:32.081Z,90.45
2023-03-29T01:22:02.147Z,91.07
2023-03-29T01:24:32.722Z,90.68
2023-03-29T01:27:02.958Z,90.02
2023-03-29T01:29:32.994Z,90.62
2023-03-29T01:32:03.676Z,90.51
2023-03-29T01:34:34.045Z,89.68
2023-03-29T01:37:04.775Z,89.97
2023-03-29T01:39:35.600Z,89.86
2023-03-29T01:42:06.376Z,89.95
2023-03-29T01:44:37.091Z,90.45
2023-03-29T01:47:07.286Z,90.10
2023-03-29T01:49:38.158Z,91.04
2023-03-29T01:52:08.207Z,91.09
2023-03-29T01:54:38.324Z,91.15
2023-03-29T01:57:08.896Z,90.24
2023-03-29T01:59:39.344Z,91.02
2023-03-29T02:02:09.850Z,90.29
2023-03-29T02:04:40.046Z,91.24
2023-03-29T02:07:10.490Z,91.58
2023-03-29T02:09:41.281Z,91.56
2023-03-29T02:12:12.094Z,91.35
2023-03-29T02:14:42.288Z,91.65
2023-03-29T02:17:12.475Z,91.79
2023-03-29T02:19:43.200Z,92.15
2023-03-29T02:22:13.586Z,91.69
2023-03-29T02:24:44.190Z,91.21
2023-03-29T02:27:14.735Z,91.47
2023-03-29T02:29:45.448Z,92.61
2023-03-29T02:32:15.978Z,92.08
2023-03-29T02:34:46.394Z,92.65
2023-03-29T02:37:16.623Z,92.81
2023-03-29T02:39:47.247Z,93.36
2023-03-29T02:42:18.006Z,92.35
2023-03-29T02:44:48.729Z,92.23
2023-03-29T02:47:19.242Z,92.42
2023-03-29T02:49:50.101Z,92.81
2023-03-29T02:52:20.730Z,92.14
2023-03-29T02:54:50.824Z,92.16
2023-03-29T02:57:21.950Z,93.16
2023-03-29T02:59:52.275Z,92.41
2023-03-29T03:02:22.600Z,92.80
2023-03-29T03:04:52.902Z,93.14
2023-03-29T03:07:23.109Z,93.25
2023-03-29T03:09:53.257Z,92.94
2023-03-29T03:12:24.047Z,93.43
2023-03-29T03:14:54.390Z,92.13
2023-03-29T03:17:24.915Z,93.16
2023-03-29T03:19:55.561Z,93.08
2023-03-29T03:22:25.862Z,92.87
2023-03-29T03:24:56.455Z,92.94
2023-03-29T03:27:27.241Z,92.82
2023-03-29T03:29:57.949Z,92.19
2023-03-29T03:32:28.200Z,92.70
2023-03-29T03:34:58.836Z,92.82
2023-03-29T03:37:29.249Z,93.10
2023-03-29T03:39:59.443Z,92.40
2023-03-29T03:42:29.861Z,92.29
2023-03-29T03:45:00.625Z,92.38
2023-03-29T03:47:31.383Z,92.04
2023-03-29T03:50:01.582Z,91.33
2023-03-29T03:52:31.705Z,92.19
2023-03-29T03:55:02.466Z,91.90
2023-03-29T03:57:33.170Z,92.18
2023-03-29T04:00:03.618Z,91.62
2023-03-29T04:02:34.201Z,91.91
2023-03-29T04:05:04.847Z,91.18
2023-03-29T04:07:35.270Z,91.34
2023-03-29T04:10:05.740Z,91.94
2023-03-29T04:12:35.923Z,91.51
2023-03-29T04:15:06.078Z,90.61
2023-03-29T04:17:36.548Z,91.28
2023-03-29T04:20:06.921Z,91.32
2023-03-29T04:22:37.394Z,91.59
2023-03-29T04:25:07.852Z,91.34
2023-03-29T04:27:38.470Z,91.19
2023-03-29T04:30:08.630Z,91.07
2023-03-29T04:32:39.164Z,91.75
2023-03-29T04:35:09.565Z,91.60
2023-03-29T04:37:40.239Z,90.80
2023-03-29T04:40:10.408Z,90.58
2023-03-29T04:42:40.791Z,91.21
2023-03-29T04:45:11.313Z,90.95
2023-03-29T04:47:41.767Z,92.13
2023-03-29T04:50:12.095Z,90.00
2023-03-29T04:52:42.565Z,89.67
2023-03-29T04:55:13.314Z,91.06
2023-03-29T04:57:44.044Z,90.65
2023-03-29T05:00:14.148Z,91.16
2023-03-29T05:02:44.751Z,91.99
2023-03-29T05:05:15.048Z,91.41
2023-03-29T05:07:45.098Z,91.75
2023-03-29T05:10:15.262Z,92.18
2023-03-29T05:12:45.777Z,92.22
2023-03-29T05:15:16.619Z,90.62
2023-03-29T05:17:47.284Z,91.63
2023-03-29T05:20:17.384Z,91.07
2023-03-29T05:22:48.085Z,89.98
2023-03-29T05:25:18.182Z,90.78
2023-03-29T05:27:48.377Z,90.74
2023-03-29T05:30:18.817Z,90.23
2023-03-29T05:32:49.453Z,90.22
2023-03-29T05:35:19.375Z,91.28
2023-03-29T05:37:49.555Z,90.74
2023-03-29T05:40:20.204Z,90.96
2023-03-29T05:42:50.897Z,91.16
2023-03-29T05:45:21.816Z,89.83
2023-03-29T05:47:52.315Z,90.81
2023-03-29T05:50:22.997Z,90.05
2023-03-29T05:52:53.042Z,90.99
2023-03-29T05:55:23.067Z,90.19
2023-03-29T05:57:53.253Z,90.54
2023-03-29T06:00:24.319Z,91.46
2023-03-29T06:02:56.367Z,91.20
2023-03-29T06:05:25.276Z,90.24
2023-03-29T06:07:55.784Z,90.78
2023-03-29T06:10:25.917Z,91.12
2023-03-29T06:12:56.675Z,92.92
2023-03-29T06:15:26.981Z,92.15
2023-03-29T06:17:57.772Z,91.45
2023-03-29T06:20:27.853Z,92.69
2023-03-29T06:22:58.667Z,91.82
2023-03-29T06:25:29.334Z,92.30
2023-03-29T06:28:00.130Z,93.34
2023-03-29T06:30:30.396Z,93.89
2023-03-29T06:33:00.548Z,94.56
2023-03-29T06:35:30.977Z,93.74
2023-03-29T06:38:01.623Z,94.56
2023-03-29T06:40:32.318Z,94.90
2023-03-29T06:43:03.323Z,93.72
2023-03-29T06:45:33.521Z,94.37
2023-03-29T06:48:03.922Z,95.69
2023-03-29T06:50:34.368Z,95.03
2023-03-29T06:53:04.799Z,95.18
2023-03-29T06:55:34.881Z,95.39
2023-03-29T06:58:05.355Z,95.06
2023-03-29T07:00:35.920Z,95.54
2023-03-29T07:03:06.183Z,94.14
2023-03-29T07:05:36.194Z,95.79
2023-03-29T07:08:07.001Z,94.81
2023-03-29T07:10:37.695Z,93.92
2023-03-29T07:13:08.442Z,93.89
2023-03-29T07:15:38.726Z,94.13
2023-03-29T07:18:09.372Z,94.62
2023-03-29T07:20:40.020Z,94.30
2023-03-29T07:23:10.327Z,94.91
2023-03-29T07:25:40.382Z,94.92
2023-03-29T07:28:11.146Z,94.55
2023-03-29T07:30:41.459Z,94.00
2023-03-29T07:33:12.017Z,95.99
2023-03-29T07:35:42.010Z,94.21
2023-03-29T07:38:12.473Z,93.80
2023-03-29T07:40:42.854Z,94.90
2023-03-29T07:43:13.462Z,94.58
2023-03-29T07:45:43.521Z,94.28
2023-03-29T07:48:13.771Z,93.60
2023-03-29T07:50:44.323Z,94.78
2023-03-29T07:53:14.430Z,94.49
2023-03-29T07:58:15.583Z,94.61
2023-03-29T08:00:45.915Z,95.13
2023-03-29T08:03:16.319Z,95.22
2023-03-29T08:05:46.902Z,94.08
2023-03-29T08:08:17.330Z,94.59
2023-03-29T08:10:47.725Z,94.22
2023-03-29T08:13:18.071Z,93.04
2023-03-29T08:15:48.741Z,94.15
2023-03-29T08:18:19.436Z,93.11
2023-03-29T08:20:49.872Z,92.57
2023-03-29T08:23:19.932Z,93.03
2023-03-29T08:25:50.304Z,93.53
2023-03-29T08:28:20.995Z,92.77
2023-03-29T08:30:51.726Z,92.51
2023-03-29T08:33:22.645Z,92.62
2023-03-29T08:35:53.328Z,92.99
2023-03-29T08:38:24.191Z,93.16
2023-03-29T08:40:54.190Z,94.23
2023-03-29T08:43:24.972Z,92.99
2023-03-29T08:45:55.854Z,92.79
2023-03-29T08:48:26.350Z,93.03
2023-03-29T08:50:56.629Z,92.45
2023-03-29T08:53:26.786Z,97.13
2023-03-29T08:55:57.055Z,92.87
2023-03-29T08:58:27.789Z,91.03
2023-03-29T09:00:58.415Z,91.38
2023-03-29T09:03:28.662Z,91.98
2023-03-29T09:05:59.068Z,91.26
2023-03-29T09:08:29.408Z,91.23
2023-03-29T09:10:59.841Z,90.74
2023-03-29T09:13:30.499Z,90.79
2023-03-29T09:16:01.265Z,90.66
2023-03-29T09:18:31.526Z,90.23
2023-03-29T09:21:02.377Z,90.15
2023-03-29T09:23:32.389Z,90.13
2023-03-29T09:26:02.985Z,90.44
2023-03-29T09:28:33.321Z,90.77
2023-03-29T09:31:04.097Z,90.80
2023-03-29T09:33:34.534Z,91.38
2023-03-29T09:36:04.876Z,91.47
2023-03-29T09:38:35.087Z,89.87
2023-03-29T09:41:05.533Z,89.08
2023-03-29T09:43:35.781Z,89.05
2023-03-29T09:46:06.315Z,89.31
2023-03-29T09:48:36.892Z,89.14
2023-03-29T09:51:07.455Z,89.36
2023-03-29T09:53:38.340Z,88.44
2023-03-29T09:56:08.825Z,88.32
2023-03-29T09:58:39.395Z,88.44
2023-03-29T10:01:09.719Z,88.35
2023-03-29T10:03:40.006Z,88.23
2023-03-29T10:06:10.172Z,87.89
2023-03-29T10:08:40.796Z,89.18
2023-03-29T10:11:11.027Z,88.37
2023-03-29T10:13:41.639Z,88.10
2023-03-29T10:16:11.882Z,90.39
2023-03-29T10:18:42.135Z,89.50
2023-03-29T10:21:12.211Z,89.72
2023-03-29T10:23:42.285Z,89.41
2023-03-29T10:26:12.532Z,87.28
2023-03-29T10:28:43.071Z,87.35
2023-03-29T10:31:14.563Z,87.74
2023-03-29T10:33:43.835Z,87.57
2023-03-29T10:36:14.336Z,87.01
2023-03-29T10:38:44.843Z,86.61
2023-03-29T10:41:15.415Z,87.20
2023-03-29T10:43:45.864Z,87.38
2023-03-29T10:46:16.113Z,88.72
2023-03-29T10:48:46.393Z,87.74
2023-03-29T10:51:16.795Z,88.24
2023-03-29T10:53:47.329Z,87.72
2023-03-29T10:56:17.856Z,89.13
2023-03-29T10:58:48.350Z,88.30
2023-03-29T11:01:18.555Z,88.66
2023-03-29T11:03:49.227Z,89.80
2023-03-29T11:06:19.888Z,88.79
2023-03-29T11:08:50.665Z,88.90
2023-03-29T11:11:21.167Z,88.51
2023-03-29T11:13:51.699Z,88.80
2023-03-29T11:16:22.587Z,88.55
2023-03-29T11:18:53.035Z,87.77
2023-03-29T11:21:23.546Z,87.77
2023-03-29T11:23:54.073Z,87.90
2023-03-29T11:26:24.413Z,87.76
2023-03-29T11:28:55.164Z,88.74
2023-03-29T11:31:25.662Z,88.54
2023-03-29T11:33:55.813Z,88.18
2023-03-29T11:36:26.010Z,88.12
2023-03-29T11:38:56.260Z,88.23
2023-03-29T11:41:26.985Z,87.74
2023-03-29T11:43:57.462Z,87.28
2023-03-29T11:46:27.986Z,87.38
2023-03-29T11:48:58.237Z,88.24
2023-03-29T11:51:28.959Z,87.56
2023-03-29T11:53:59.680Z,87.61
2023-03-29T11:56:30.454Z,87.81
2023-03-29T11:59:00.928Z,87.36
2023-03-29T12:01:31.394Z,86.88
2023-03-29T12:04:01.718Z,86.11
2023-03-29T12:06:31.725Z,84.96
2023-03-29T12:09:02.221Z,84.68
2023-03-29T12:11:33.007Z,84.68
2023-03-29T12:14:03.829Z,84.89
2023-03-29T12:16:34.691Z,85.65
2023-03-29T12:19:04.874Z,84.82
2023-03-29T12:21:35.336Z,83.72
2023-03-29T12:24:06.196Z,85.84
2023-03-29T12:26:36.729Z,85.32
2023-03-29T12:29:07.203Z,87.10
2023-03-29T12:31:37.607Z,86.23
2023-03-29T12:34:08.170Z,86.13
2023-03-29T12:36:38.385Z,86.12
2023-03-29T12:39:08.643Z,85.78
2023-03-29T12:41:39.135Z,86.41
2023-03-29T12:44:10.817Z,86.33
2023-03-29T12:46:40.107Z,86.32
2023-03-29T12:49:10.873Z,86.19
2023-03-29T12:51:41.326Z,84.38
2023-03-29T12:54:12.137Z,84.05
2023-03-29T12:56:42.254Z,84.55
2023-03-29T12:59:12.795Z,84.79
2023-03-29T13:01:43.252Z,85.68
2023-03-29T13:04:13.440Z,84.53
2023-03-29T13:06:43.876Z,84.38
2023-03-29T13:09:14.653Z,84.17
2023-03-29T13:11:44.854Z,84.71
2023-03-29T13:14:14.918Z,84.30
2023-03-29T13:16:45.640Z,83.67
2023-03-29T13:19:16.343Z,84.06
2023-03-29T13:21:46.511Z,84.12
2023-03-29T13:24:16.918Z,84.23
2023-03-29T13:26:47.121Z,83.72
2023-03-29T13:29:17.716Z,83.68
2023-03-29T13:31:47.965Z,83.37
2023-03-29T13:34:18.376Z,83.45
2023-03-29T13:36:48.724Z,83.29
2023-03-29T13:39:19.224Z,83.74
2023-03-29T13:41:49.884Z,83.69
2023-03-29T13:44:20.006Z,84.51
2023-03-29T13:46:50.124Z,84.43
2023-03-29T13:49:20.616Z,84.50
2023-03-29T13:51:50.739Z,84.99
2023-03-29T13:54:20.865Z,85.44
2023-03-29T13:56:50.947Z,86.12
2023-03-29T13:59:21.605Z,86.26
2023-03-29T14:01:52.493Z,86.87
2023-03-29T14:04:22.844Z,87.05
2023-03-29T14:06:52.982Z,86.76
2023-03-29T14:09:23.738Z,86.85
2023-03-29T14:11:53.812Z,86.84
2023-03-29T14:14:24.586Z,86.72
2023-03-29T14:16:54.662Z,86.84
2023-03-29T14:19:24.801Z,87.26
2023-03-29T14:21:55.274Z,87.13
2023-03-29T14:24:25.351Z,87.07
2023-03-29T14:26:55.485Z,86.98
2023-03-29T14:29:25.933Z,86.78
2023-03-29T14:31:56.446Z,86.58
2023-03-29T14:34:26.461Z,86.53
2023-03-29T14:36:57.233Z,86.55
2023-03-29T14:39:27.638Z,86.04
2023-03-29T14:41:58.035Z,86.48
2023-03-29T14:44:28.179Z,86.37
2023-03-29T14:46:58.594Z,86.16
2023-03-29T14:49:29.349Z,86.50
2023-03-29T14:51:59.771Z,86.16
2023-03-29T14:54:30.218Z,85.99
2023-03-29T14:57:00.676Z,86.08
2023-03-29T14:59:31.324Z,86.35
2023-03-29T15:02:02.058Z,86.22
2023-03-29T15:04:32.506Z,85.97
2023-03-29T15:07:02.928Z,86.22
2023-03-29T15:09:33.379Z,86.70
2023-03-29T15:12:03.536Z,87.01
2023-03-29T15:14:34.410Z,86.81
2023-03-29T15:17:05.060Z,87.08
2023-03-29T15:19:35.688Z,86.96
2023-03-29T15:22:06.064Z,87.13
2023-03-29T15:24:36.392Z,87.32
2023-03-29T15:27:06.852Z,87.43
2023-03-29T15:29:37.338Z,87.46
2023-03-29T15:32:07.484Z,87.16
2023-03-29T15:34:37.891Z,87.27
2023-03-29T15:37:08.360Z,87.19
2023-03-29T15:39:38.436Z,86.91
2023-03-29T15:42:08.583Z,87.03
2023-03-29T15:44:39.121Z,86.78
2023-03-29T15:47:09.585Z,87.00
2023-03-29T15:49:39.926Z,87.42
2023-03-29T15:52:10.343Z,87.47
2023-03-29T15:54:40.521Z,87.15
2023-03-29T15:57:10.762Z,87.57
2023-03-29T15:59:40.778Z,87.95
2023-03-29T16:02:11.311Z,88.15
2023-03-29T16:04:41.699Z,87.98
2023-03-29T16:07:12.103Z,88.48
2023-03-29T16:09:42.613Z,88.34
2023-03-29T16:12:13.317Z,88.39
2023-03-29T16:14:43.443Z,88.05
2023-03-29T16:17:13.574Z,88.06
2023-03-29T16:19:43.855Z,87.69
2023-03-29T16:22:14.194Z,87.94
2023-03-29T16:24:44.522Z,87.77
2023-03-29T16:27:14.780Z,87.75
2023-03-29T16:29:45.191Z,87.56
2023-03-29T16:32:15.750Z,87.60
2023-03-29T16:34:46.097Z,87.40
2023-03-29T16:37:16.499Z,87.26
2023-03-29T16:39:46.951Z,87.16
2023-03-29T16:42:17.452Z,87.44
2023-03-29T16:44:47.821Z,86.98
2023-03-29T16:47:17.888Z,87.06
2023-03-29T16:49:48.404Z,87.12
2023-03-29T16:52:18.741Z,87.21
2023-03-29T16:54:48.935Z,86.85
2023-03-29T16:57:19.114Z,86.85
2023-03-29T16:59:49.528Z,86.96
2023-03-29T17:02:19.575Z,87.37
2023-03-29T17:04:50.069Z,87.36
2023-03-29T17:07:20.149Z,87.65
2023-03-29T17:09:50.312Z,87.80
2023-03-29T17:12:20.729Z,88.03
2023-03-29T17:14:51.159Z,88.19
2023-03-29T17:17:21.314Z,88.18
2023-03-29T17:19:51.701Z,88.22
2023-03-29T17:22:21.765Z,88.38
2023-03-29T17:24:52.295Z,88.70
2023-03-29T17:27:22.529Z,88.64
2023-03-29T17:29:52.900Z,88.84
2023-03-29T17:32:23.464Z,88.67
2023-03-29T17:34:53.841Z,88.72
2023-03-29T17:37:24.148Z,88.67
2023-03-29T17:39:54.353Z,88.65
2023-03-29T17:42:24.418Z,88.62
2023-03-29T17:44:54.888Z,88.51
2023-03-29T17:47:25.388Z,88.44
2023-03-29T17:49:55.512Z,88.62
2023-03-29T17:52:25.664Z,89.00
2023-03-29T17:54:56.068Z,89.69
2023-03-29T17:57:26.645Z,90.05
2023-03-29T17:59:56.966Z,90.30
2023-03-29T18:02:27.435Z,90.71
2023-03-29T18:04:57.752Z,91.01
2023-03-29T18:07:28.539Z,91.78
2023-03-29T18:09:59.273Z,91.67
2023-03-29T18:12:29.820Z,91.77
2023-03-29T18:15:00.370Z,91.68
2023-03-29T18:17:30.784Z,91.86
2023-03-29T18:20:01.226Z,91.98
2023-03-29T18:22:31.886Z,92.06
2023-03-29T18:25:01.929Z,91.61
2023-03-29T18:27:32.695Z,91.52
2023-03-29T18:30:02.891Z,91.63
2023-03-29T18:32:33.098Z,92.10
2023-03-29T18:35:03.124Z,91.01
2023-03-29T18:37:33.756Z,90.38
2023-03-29T18:40:04.574Z,89.95
2023-03-29T18:42:35.139Z,91.51
2023-03-29T18:45:05.612Z,90.86
2023-03-29T18:47:36.468Z,91.92
2023-03-29T18:50:07.157Z,92.28
2023-03-29T18:52:37.431Z,91.91
2023-03-29T18:55:07.789Z,93.14
2023-03-29T18:57:38.739Z,92.59
2023-03-29T19:00:08.873Z,93.09
2023-03-29T19:02:38.961Z,92.92
2023-03-29T19:05:09.037Z,93.71
2023-03-29T19:07:39.701Z,93.03
2023-03-29T19:10:10.362Z,92.41
2023-03-29T19:12:41.192Z,93.40
2023-03-29T19:15:11.494Z,93.78
2023-03-29T19:17:41.544Z,95.29
2023-03-29T19:20:12.270Z,94.41
2023-03-29T19:22:42.584Z,95.36
2023-03-29T19:25:13.396Z,94.81
2023-03-29T19:27:43.850Z,96.65
2023-03-29T19:30:13.941Z,95.70
2023-03-29T19:32:44.197Z,97.04
2023-03-29T19:35:14.255Z,97.05
2023-03-29T19:37:44.765Z,95.87
2023-03-29T19:40:15.253Z,95.34
2023-03-29T19:42:45.664Z,96.84
2023-03-29T19:45:16.119Z,97.12
2023-03-29T19:47:46.453Z,97.51
2023-03-29T19:50:17.196Z,96.20
2023-03-29T19:52:47.440Z,96.10
2023-03-29T19:55:17.838Z,96.00
2023-03-29T19:57:48.636Z,95.37
2023-03-29T20:00:18.995Z,94.74
2023-03-29T20:02:49.334Z,94.13
2023-03-29T20:05:19.741Z,95.51
2023-03-29T20:07:50.193Z,95.02
2023-03-29T20:10:20.528Z,95.14
2023-03-29T20:12:50.792Z,95.72
2023-03-29T20:15:20.940Z,94.32
2023-03-29T20:17:51.634Z,95.13
2023-03-29T20:20:21.800Z,94.60
2023-03-29T20:22:52.166Z,95.99
2023-03-29T20:25:22.600Z,95.05
2023-03-29T20:27:53.229Z,95.68
2023-03-29T20:30:23.478Z,94.77
2023-03-29T20:32:53.984Z,94.75
2023-03-29T20:35:24.829Z,96.04
2023-03-29T20:37:54.833Z,96.29
2023-03-29T20:40:25.673Z,96.14
2023-03-29T20:42:55.949Z,97.32
2023-03-29T20:45:26.250Z,98.03
2023-03-29T20:47:56.741Z,96.98
2023-03-29T20:50:27.187Z,95.91
2023-03-29T20:52:57.573Z,96.77
2023-03-29T20:55:28.424Z,97.33
2023-03-29T20:57:58.813Z,99.10
2023-03-29T21:00:29.483Z,97.88
2023-03-29T21:03:00.166Z,96.49
2023-03-29T21:05:30.478Z,96.79
2023-03-29T21:08:01.053Z,95.65
2023-03-29T21:10:31.629Z,96.76
2023-03-29T21:13:02.444Z,95.99
2023-03-29T21:15:32.959Z,96.86
2023-03-29T21:18:03.632Z,97.03
2023-03-29T21:20:34.151Z,97.62
2023-03-29T21:23:04.530Z,98.75
2023-03-29T21:25:34.848Z,98.85
2023-03-29T21:28:05.113Z,100.00
2023-03-29T21:30:35.495Z,99.55
2023-03-29T21:33:05.720Z,99.36
2023-03-29T21:35:36.293Z,99.13
2023-03-29T21:38:06.935Z,99.06
2023-03-29T21:40:37.459Z,99.13
2023-03-29T21:43:08.004Z,98.10
2023-03-29T21:45:38.583Z,98.37
2023-03-29T21:48:08.600Z,98.23
2023-03-29T21:50:39.242Z,98.96
2023-03-29T21:53:09.544Z,97.80
2023-03-29T21:55:40.133Z,100.00
2023-03-29T21:58:10.236Z,100.00
2023-03-29T22:00:40.595Z,100.00
2023-03-29T22:03:11.385Z,100.00
2023-03-29T22:05:42.028Z,100.00
2023-03-29T22:08:12.813Z,100.00
2023-03-29T22:10:43.013Z,99.50
2023-03-29T22:13:13.862Z,100.00
2023-03-29T22:15:44.426Z,100.00
2023-03-29T22:18:14.964Z,100.00
2023-03-29T22:20:45.279Z,99.15
2023-03-29T22:23:15.301Z,100.00
2023-03-29T22:25:45.903Z,100.00
2023-03-29T22:28:16.244Z,99.72
2023-03-29T22:30:46.879Z,100.00
2023-03-29T22:33:17.245Z,100.00
2023-03-29T22:35:47.642Z,100.00
2023-03-29T22:38:18.157Z,99.68
2023-03-29T22:40:48.290Z,100.00
2023-03-29T22:43:18.505Z,99.82
2023-03-29T22:45:48.782Z,100.00
2023-03-29T22:48:19.270Z,99.78
2023-03-29T22:50:50.178Z,100.00
2023-03-29T22:53:20.740Z,100.00
2023-03-29T22:55:50.882Z,100.00
2023-03-29T22:58:21.263Z,100.00
2023-03-29T23:00:51.226Z,100.00
2023-03-29T23:03:22.240Z,100.00
2023-03-29T23:05:52.818Z,100.00
2023-03-29T23:08:22.849Z,100.00
2023-03-29T23:10:53.115Z,100.00
2023-03-29T23:13:23.940Z,99.34
2023-03-29T23:15:54.781Z,99.34
2023-03-29T23:18:25.175Z,99.02
2023-03-29T23:20:55.251Z,99.43
2023-03-29T23:23:25.307Z,100.00
2023-03-29T23:25:56.098Z,100.00
2023-03-29T23:28:26.305Z,99.91
2023-03-29T23:30:57.137Z,100.00
2023-03-29T23:33:27.751Z,100.00
2023-03-29T23:35:58.614Z,100.00
2023-03-29T23:38:29.225Z,100.00
2023-03-29T23:40:59.317Z,100.00
2023-03-29T23:43:29.476Z,100.00
2023-03-29T23:46:00.253Z,100.00
2023-03-29T23:48:31.036Z,100.00
2023-03-29T23:51:01.845Z,100.00
2023-03-29T23:53:32.053Z,100.00
2023-03-29T23:56:02.658Z,99.86
2023-03-29T23:58:33.459Z,99.47
